sensor_id;sensor_type;location;lat;lon;timestamp;pressure;altitude;pressure_sealevel;temperature;humidity
11672;BME280;5892;43.412;24.612;2023-07-20T00:01:21;99419.84;;;23.14;100.00
11672;BME280;5892;43.412;24.612;2023-07-20T00:03:52;99422.41;;;23.02;100.00
11672;BME280;5892;43.412;24.612;2023-07-20T00:06:21;99386.31;;;23.14;100.00
11672;BME280;5892;43.412;24.612;2023-07-20T00:08:49;99386.75;;;23.13;100.00
11672;BME280;5892;43.412;24.612;2023-07-20T00:11:16;99357.75;;;23.00;100.00
11672;BME280;5892;43.412;24.612;2023-07-20T00:13:57;99351.22;;;22.79;100.00
11672;BME280;5892;43.412;24.612;2023-07-20T00:16:24;99362.53;;;23.03;100.00
11672;BME280;5892;43.412;24.612;2023-07-20T00:18:54;99321.94;;;22.91;100.00
11672;BME280;5892;43.412;24.612;2023-07-20T00:21:22;99289.34;;;22.81;100.00
11672;BME280;5892;43.412;24.612;2023-07-20T00:23:49;99325.03;;;23.00;100.00
11672;BME280;5892;43.412;24.612;2023-07-20T00:26:18;99308.72;;;22.95;100.00
11672;BME280;5892;43.412;24.612;2023-07-20T00:28:46;99307.38;;;22.76;100.00
11672;BME280;5892;43.412;24.612;2023-07-20T00:31:13;99332.38;;;22.87;100.00
11672;BME280;5892;43.412;24.612;2023-07-20T00:33:49;99349.09;;;22.91;100.00
11672;BME280;5892;43.412;24.612;2023-07-20T00:36:18;99337.59;;;22.85;100.00
11672;BME280;5892;43.412;24.612;2023-07-20T00:38:45;99333.28;;;22.77;100.00
11672;BME280;5892;43.412;24.612;2023-07-20T00:41:13;99321.34;;;22.73;100.00
11672;BME280;5892;43.412;24.612;2023-07-20T00:43:40;99324.22;;;22.66;100.00
11672;BME280;5892;43.412;24.612;2023-07-20T00:46:09;99291.28;;;22.47;100.00
11672;BME280;5892;43.412;24.612;2023-07-20T00:48:36;99337.59;;;22.40;100.00
11672;BME280;5892;43.412;24.612;2023-07-20T00:51:04;99329.88;;;22.14;100.00
11672;BME280;5892;43.412;24.612;2023-07-20T00:53:33;99359.94;;;21.96;100.00
11672;BME280;5892;43.412;24.612;2023-07-20T00:56:02;99376.34;;;21.80;100.00
11672;BME280;5892;43.412;24.612;2023-07-20T00:58:32;99363.34;;;21.55;100.00
11672;BME280;5892;43.412;24.612;2023-07-20T01:00:59;99392.34;;;21.69;100.00
11672;BME280;5892;43.412;24.612;2023-07-20T01:03:28;99411.69;;;21.93;100.00
11672;BME280;5892;43.412;24.612;2023-07-20T01:06:03;99412.09;;;22.03;100.00
11672;BME280;5892;43.412;24.612;2023-07-20T01:08:40;99391.34;;;22.07;100.00
11672;BME280;5892;43.412;24.612;2023-07-20T01:11:16;99340.84;;;21.87;100.00
11672;BME280;5892;43.412;24.612;2023-07-20T01:13:44;99375.44;;;22.01;100.00
11672;BME280;5892;43.412;24.612;2023-07-20T01:16:11;99392.84;;;22.15;100.00
11672;BME280;5892;43.412;24.612;2023-07-20T01:18:38;99348.03;;;21.85;100.00
11672;BME280;5892;43.412;24.612;2023-07-20T01:21:08;99387.19;;;22.26;100.00
11672;BME280;5892;43.412;24.612;2023-07-20T01:24:09;99405.56;;;22.23;100.00
11672;BME280;5892;43.412;24.612;2023-07-20T01:26:58;99396.84;;;22.18;100.00
11672;BME280;5892;43.412;24.612;2023-07-20T01:29:43;99404.34;;;22.24;100.00
11672;BME280;5892;43.412;24.612;2023-07-20T01:32:23;99425.53;;;22.18;100.00
11672;BME280;5892;43.412;24.612;2023-07-20T01:34:52;99430.97;;;22.36;100.00
11672;BME280;5892;43.412;24.612;2023-07-20T01:37:21;99419.78;;;22.39;100.00
11672;BME280;5892;43.412;24.612;2023-07-20T01:39:53;99434.91;;;22.42;100.00
11672;BME280;5892;43.412;24.612;2023-07-20T01:42:29;99422.59;;;22.36;100.00
11672;BME280;5892;43.412;24.612;2023-07-20T01:44:56;99416.91;;;22.47;100.00
11672;BME280;5892;43.412;24.612;2023-07-20T01:47:24;99376.78;;;22.33;100.00
11672;BME280;5892;43.412;24.612;2023-07-20T01:49:51;99396.16;;;22.48;100.00
11672;BME280;5892;43.412;24.612;2023-07-20T01:52:19;99404.16;;;22.49;100.00
11672;BME280;5892;43.412;24.612;2023-07-20T01:54:46;99359.28;;;22.29;100.00
11672;BME280;5892;43.412;24.612;2023-07-20T01:57:13;99376.38;;;22.31;100.00
11672;BME280;5892;43.412;24.612;2023-07-20T01:59:41;99391.09;;;22.35;100.00
11672;BME280;5892;43.412;24.612;2023-07-20T02:02:08;99393.41;;;22.44;100.00
11672;BME280;5892;43.412;24.612;2023-07-20T02:04:36;99394.28;;;22.37;100.00
11672;BME280;5892;43.412;24.612;2023-07-20T02:07:04;99386.69;;;22.38;100.00
11672;BME280;5892;43.412;24.612;2023-07-20T02:09:31;99385.50;;;22.35;100.00
11672;BME280;5892;43.412;24.612;2023-07-20T02:11:58;99360.53;;;22.21;100.00
11672;BME280;5892;43.412;24.612;2023-07-20T02:14:25;99391.53;;;22.34;100.00
11672;BME280;5892;43.412;24.612;2023-07-20T02:16:53;99375.66;;;22.24;100.00
11672;BME280;5892;43.412;24.612;2023-07-20T02:19:26;99381.28;;;22.17;100.00
11672;BME280;5892;43.412;24.612;2023-07-20T02:21:55;99388.44;;;22.21;100.00
11672;BME280;5892;43.412;24.612;2023-07-20T02:24:22;99362.16;;;22.15;100.00
11672;BME280;5892;43.412;24.612;2023-07-20T02:26:48;99358.63;;;22.11;100.00
11672;BME280;5892;43.412;24.612;2023-07-20T02:29:17;99392.75;;;22.26;100.00
11672;BME280;5892;43.412;24.612;2023-07-20T02:31:44;99390.72;;;22.30;100.00
11672;BME280;5892;43.412;24.612;2023-07-20T02:34:12;99393.50;;;22.33;100.00
11672;BME280;5892;43.412;24.612;2023-07-20T02:36:39;99375.31;;;22.15;100.00
11672;BME280;5892;43.412;24.612;2023-07-20T02:39:09;99399.06;;;22.37;100.00
11672;BME280;5892;43.412;24.612;2023-07-20T02:41:39;99378.06;;;22.22;100.00
11672;BME280;5892;43.412;24.612;2023-07-20T02:44:09;99392.84;;;22.15;100.00
11672;BME280;5892;43.412;24.612;2023-07-20T02:46:36;99421.47;;;22.26;100.00
11672;BME280;5892;43.412;24.612;2023-07-20T02:49:05;99394.03;;;22.14;100.00
11672;BME280;5892;43.412;24.612;2023-07-20T02:51:32;99415.94;;;22.23;100.00
11672;BME280;5892;43.412;24.612;2023-07-20T02:53:59;99429.84;;;22.26;100.00
11672;BME280;5892;43.412;24.612;2023-07-20T02:56:30;99421.50;;;22.23;100.00
11672;BME280;5892;43.412;24.612;2023-07-20T02:59:00;99418.34;;;22.17;100.00
11672;BME280;5892;43.412;24.612;2023-07-20T03:01:28;99420.78;;;22.12;100.00
11672;BME280;5892;43.412;24.612;2023-07-20T03:03:55;99414.41;;;22.11;100.00
11672;BME280;5892;43.412;24.612;2023-07-20T03:06:23;99411.22;;;22.13;100.00
11672;BME280;5892;43.412;24.612;2023-07-20T03:08:52;99417.25;;;22.08;100.00
11672;BME280;5892;43.412;24.612;2023-07-20T03:11:19;99389.81;;;21.92;100.00
11672;BME280;5892;43.412;24.612;2023-07-20T03:13:48;99402.53;;;22.00;100.00
11672;BME280;5892;43.412;24.612;2023-07-20T03:16:18;99414.81;;;22.13;100.00
11672;BME280;5892;43.412;24.612;2023-07-20T03:18:48;99407.22;;;22.14;100.00
11672;BME280;5892;43.412;24.612;2023-07-20T03:21:15;99430.75;;;22.09;100.00
11672;BME280;5892;43.412;24.612;2023-07-20T03:23:42;99385.44;;;21.98;100.00
11672;BME280;5892;43.412;24.612;2023-07-20T03:26:09;99382.16;;;22.55;100.00
11672;BME280;5892;43.412;24.612;2023-07-20T03:28:38;99413.22;;;23.35;100.00
11672;BME280;5892;43.412;24.612;2023-07-20T03:31:06;99392.16;;;23.27;100.00
11672;BME280;5892;43.412;24.612;2023-07-20T03:33:35;99402.16;;;23.24;100.00
11672;BME280;5892;43.412;24.612;2023-07-20T03:36:06;99407.09;;;23.13;100.00
11672;BME280;5892;43.412;24.612;2023-07-20T03:38:33;99402.16;;;23.24;100.00
11672;BME280;5892;43.412;24.612;2023-07-20T03:41:00;99380.84;;;23.38;100.00
11672;BME280;5892;43.412;24.612;2023-07-20T03:43:28;99394.94;;;23.91;100.00
11672;BME280;5892;43.412;24.612;2023-07-20T03:45:55;99344.88;;;23.70;100.00
11672;BME280;5892;43.412;24.612;2023-07-20T03:48:25;99407.69;;;24.19;100.00
11672;BME280;5892;43.412;24.612;2023-07-20T03:50:52;99407.19;;;24.28;100.00
11672;BME280;5892;43.412;24.612;2023-07-20T03:53:21;99373.91;;;24.06;100.00
11672;BME280;5892;43.412;24.612;2023-07-20T03:55:49;99395.66;;;24.69;100.00
11672;BME280;5892;43.412;24.612;2023-07-20T03:58:17;99394.59;;;25.65;99.27
11672;BME280;5892;43.412;24.612;2023-07-20T04:00:45;99390.84;;;26.40;94.38
11672;BME280;5892;43.412;24.612;2023-07-20T04:03:12;99386.19;;;27.23;89.92
11672;BME280;5892;43.412;24.612;2023-07-20T04:05:41;99379.00;;;27.51;86.33
11672;BME280;5892;43.412;24.612;2023-07-20T04:08:08;99367.63;;;27.55;86.07
11672;BME280;5892;43.412;24.612;2023-07-20T04:10:36;99354.94;;;27.21;86.30
11672;BME280;5892;43.412;24.612;2023-07-20T04:13:03;99380.94;;;27.92;84.37
11672;BME280;5892;43.412;24.612;2023-07-20T04:15:32;99384.28;;;28.38;81.49
11672;BME280;5892;43.412;24.612;2023-07-20T04:17:59;99384.22;;;28.63;79.72
11672;BME280;5892;43.412;24.612;2023-07-20T04:20:28;99377.41;;;28.39;80.27
11672;BME280;5892;43.412;24.612;2023-07-20T04:23:00;99370.31;;;28.47;79.73
11672;BME280;5892;43.412;24.612;2023-07-20T04:25:27;99343.31;;;28.58;79.33
11672;BME280;5892;43.412;24.612;2023-07-20T04:27:54;99399.78;;;28.80;79.08
11672;BME280;5892;43.412;24.612;2023-07-20T04:30:21;99394.41;;;28.95;77.89
11672;BME280;5892;43.412;24.612;2023-07-20T04:32:49;99397.63;;;28.84;79.60
11672;BME280;5892;43.412;24.612;2023-07-20T04:38:05;99392.94;;;29.03;76.32
11672;BME280;5892;43.412;24.612;2023-07-20T04:40:32;99394.16;;;29.02;77.30
11672;BME280;5892;43.412;24.612;2023-07-20T04:42:58;99394.56;;;29.13;76.49
11672;BME280;5892;43.412;24.612;2023-07-20T04:45:26;99356.53;;;28.49;77.82
11672;BME280;5892;43.412;24.612;2023-07-20T04:47:53;99387.22;;;28.47;77.71
11672;BME280;5892;43.412;24.612;2023-07-20T04:50:22;99408.28;;;28.42;79.10
11672;BME280;5892;43.412;24.612;2023-07-20T04:52:50;99415.94;;;28.67;78.69
11672;BME280;5892;43.412;24.612;2023-07-20T04:55:23;99430.19;;;28.98;77.96
11672;BME280;5892;43.412;24.612;2023-07-20T04:57:49;99420.09;;;28.75;78.04
11672;BME280;5892;43.412;24.612;2023-07-20T05:00:17;99436.25;;;28.49;78.25
11672;BME280;5892;43.412;24.612;2023-07-20T05:02:47;99435.75;;;28.89;79.08
11672;BME280;5892;43.412;24.612;2023-07-20T05:05:14;99423.00;;;29.19;76.83
11672;BME280;5892;43.412;24.612;2023-07-20T05:07:42;99424.38;;;29.14;76.65
11672;BME280;5892;43.412;24.612;2023-07-20T05:10:09;99428.69;;;29.28;75.34
11672;BME280;5892;43.412;24.612;2023-07-20T05:12:38;99425.16;;;29.36;75.66
11672;BME280;5892;43.412;24.612;2023-07-20T05:15:06;99419.91;;;29.47;75.03
11672;BME280;5892;43.412;24.612;2023-07-20T05:17:35;99424.78;;;29.47;75.06
11672;BME280;5892;43.412;24.612;2023-07-20T05:20:05;99419.72;;;29.64;73.21
11672;BME280;5892;43.412;24.612;2023-07-20T05:22:34;99393.09;;;29.43;73.19
11672;BME280;5892;43.412;24.612;2023-07-20T05:25:07;99425.94;;;29.80;73.75
11672;BME280;5892;43.412;24.612;2023-07-20T05:27:35;99421.41;;;29.83;72.89
11672;BME280;5892;43.412;24.612;2023-07-20T05:30:07;99397.88;;;29.55;73.13
11672;BME280;5892;43.412;24.612;2023-07-20T05:32:35;99415.59;;;29.86;73.26
11672;BME280;5892;43.412;24.612;2023-07-20T05:35:03;99401.81;;;29.88;70.90
11672;BME280;5892;43.412;24.612;2023-07-20T05:37:30;99421.41;;;29.83;71.28
11672;BME280;5892;43.412;24.612;2023-07-20T05:40:00;99412.75;;;30.08;71.91
11672;BME280;5892;43.412;24.612;2023-07-20T05:42:27;99410.44;;;29.63;70.79
11672;BME280;5892;43.412;24.612;2023-07-20T05:44:54;99412.81;;;29.65;71.97
11672;BME280;5892;43.412;24.612;2023-07-20T05:47:22;99407.59;;;29.85;71.19
11672;BME280;5892;43.412;24.612;2023-07-20T05:49:49;99403.16;;;30.06;69.47
11672;BME280;5892;43.412;24.612;2023-07-20T05:52:19;99398.03;;;30.13;69.22
11672;BME280;5892;43.412;24.612;2023-07-20T05:54:45;99390.75;;;30.03;68.48
11672;BME280;5892;43.412;24.612;2023-07-20T05:57:12;99405.94;;;30.37;68.03
11672;BME280;5892;43.412;24.612;2023-07-20T05:59:39;99403.34;;;30.51;68.52
11672;BME280;5892;43.412;24.612;2023-07-20T06:02:09;99406.66;;;30.59;65.55
11672;BME280;5892;43.412;24.612;2023-07-20T06:04:40;99401.50;;;30.85;65.96
11672;BME280;5892;43.412;24.612;2023-07-20T06:07:08;99397.09;;;31.02;65.92
11672;BME280;5892;43.412;24.612;2023-07-20T06:09:36;99401.94;;;30.74;65.38
11672;BME280;5892;43.412;24.612;2023-07-20T06:12:04;99389.41;;;30.26;67.05
11672;BME280;5892;43.412;24.612;2023-07-20T06:14:35;99400.88;;;30.71;64.54
11672;BME280;5892;43.412;24.612;2023-07-20T06:17:03;99414.03;;;30.56;65.35
11672;BME280;5892;43.412;24.612;2023-07-20T06:19:29;99417.53;;;30.88;64.92
11672;BME280;5892;43.412;24.612;2023-07-20T06:21:58;99417.53;;;30.97;64.95
11672;BME280;5892;43.412;24.612;2023-07-20T06:24:25;99421.28;;;30.94;65.05
11672;BME280;5892;43.412;24.612;2023-07-20T06:26:51;99407.78;;;30.70;62.60
11672;BME280;5892;43.412;24.612;2023-07-20T06:29:18;99418.13;;;30.73;63.40
11672;BME280;5892;43.412;24.612;2023-07-20T06:31:45;99424.91;;;30.85;63.80
11672;BME280;5892;43.412;24.612;2023-07-20T06:34:12;99432.44;;;30.88;62.06
11672;BME280;5892;43.412;24.612;2023-07-20T06:36:39;99388.78;;;30.31;65.50
11672;BME280;5892;43.412;24.612;2023-07-20T06:39:08;99431.81;;;30.93;63.99
11672;BME280;5892;43.412;24.612;2023-07-20T06:41:36;99436.72;;;31.02;64.75
11672;BME280;5892;43.412;24.612;2023-07-20T06:44:03;99443.63;;;31.46;62.58
11672;BME280;5892;43.412;24.612;2023-07-20T06:46:30;99421.31;;;31.48;63.08
11672;BME280;5892;43.412;24.612;2023-07-20T06:48:58;99435.28;;;31.70;62.33
11672;BME280;5892;43.412;24.612;2023-07-20T06:51:25;99434.94;;;31.77;61.52
11672;BME280;5892;43.412;24.612;2023-07-20T06:53:52;99398.63;;;31.67;59.27
11672;BME280;5892;43.412;24.612;2023-07-20T06:56:21;99440.09;;;31.88;60.10
11672;BME280;5892;43.412;24.612;2023-07-20T06:58:48;99441.31;;;32.14;59.72
11672;BME280;5892;43.412;24.612;2023-07-20T07:01:15;99436.63;;;32.02;60.51
11672;BME280;5892;43.412;24.612;2023-07-20T07:03:42;99434.47;;;31.79;61.09
11672;BME280;5892;43.412;24.612;2023-07-20T07:06:11;99440.75;;;31.83;60.47
11672;BME280;5892;43.412;24.612;2023-07-20T07:08:39;99406.06;;;30.91;62.41
11672;BME280;5892;43.412;24.612;2023-07-20T07:11:06;99451.53;;;31.61;62.62
11672;BME280;5892;43.412;24.612;2023-07-20T07:13:34;99427.88;;;31.82;62.37
11672;BME280;5892;43.412;24.612;2023-07-20T07:16:01;99441.03;;;31.94;61.99
11672;BME280;5892;43.412;24.612;2023-07-20T07:18:28;99386.31;;;31.79;61.34
11672;BME280;5892;43.412;24.612;2023-07-20T07:21:04;99429.50;;;32.16;60.89
11672;BME280;5892;43.412;24.612;2023-07-20T07:23:31;99423.56;;;32.37;59.25
11672;BME280;5892;43.412;24.612;2023-07-20T07:26:19;99423.38;;;32.41;58.41
11672;BME280;5892;43.412;24.612;2023-07-20T07:29:09;99438.75;;;32.25;58.17
11672;BME280;5892;43.412;24.612;2023-07-20T07:31:41;99440.56;;;32.37;56.95
11672;BME280;5892;43.412;24.612;2023-07-20T07:34:08;99441.84;;;32.69;56.31
11672;BME280;5892;43.412;24.612;2023-07-20T07:36:38;99454.00;;;33.08;55.78
11672;BME280;5892;43.412;24.612;2023-07-20T07:39:07;99457.91;;;32.96;54.20
11672;BME280;5892;43.412;24.612;2023-07-20T07:41:34;99464.66;;;32.99;53.57
11672;BME280;5892;43.412;24.612;2023-07-20T07:44:03;99459.97;;;33.34;52.92
11672;BME280;5892;43.412;24.612;2023-07-20T07:46:31;99456.84;;;33.71;53.23
11672;BME280;5892;43.412;24.612;2023-07-20T07:48:58;99439.25;;;33.57;51.93
11672;BME280;5892;43.412;24.612;2023-07-20T07:51:26;99472.91;;;33.74;51.09
11672;BME280;5892;43.412;24.612;2023-07-20T07:53:53;99486.53;;;33.46;51.33
11672;BME280;5892;43.412;24.612;2023-07-20T07:56:20;99483.13;;;33.42;51.98
11672;BME280;5892;43.412;24.612;2023-07-20T07:58:48;99459.00;;;33.13;51.87
11672;BME280;5892;43.412;24.612;2023-07-20T08:01:18;99503.34;;;33.35;50.78
11672;BME280;5892;43.412;24.612;2023-07-20T08:03:45;99510.94;;;33.52;50.58
11672;BME280;5892;43.412;24.612;2023-07-20T08:06:14;99514.84;;;33.40;50.12
11672;BME280;5892;43.412;24.612;2023-07-20T08:08:41;99516.94;;;32.83;52.38
11672;BME280;5892;43.412;24.612;2023-07-20T08:11:08;99545.44;;;32.89;54.03
11672;BME280;5892;43.412;24.612;2023-07-20T08:13:36;99545.47;;;33.12;52.05
11672;BME280;5892;43.412;24.612;2023-07-20T08:16:03;99552.56;;;33.17;52.56
11672;BME280;5892;43.412;24.612;2023-07-20T08:18:32;99556.03;;;33.12;53.83
11672;BME280;5892;43.412;24.612;2023-07-20T08:20:59;99534.22;;;32.94;53.82
11672;BME280;5892;43.412;24.612;2023-07-20T08:23:28;99562.56;;;32.61;56.04
11672;BME280;5892;43.412;24.612;2023-07-20T08:25:55;99563.53;;;32.58;56.41
11672;BME280;5892;43.412;24.612;2023-07-20T08:28:22;99567.13;;;32.68;57.97
11672;BME280;5892;43.412;24.612;2023-07-20T08:30:49;99566.78;;;33.08;56.96
11672;BME280;5892;43.412;24.612;2023-07-20T08:33:17;99560.53;;;32.95;55.56
11672;BME280;5892;43.412;24.612;2023-07-20T08:35:47;99553.22;;;32.79;56.18
11672;BME280;5892;43.412;24.612;2023-07-20T08:38:14;99543.31;;;32.74;57.11
11672;BME280;5892;43.412;24.612;2023-07-20T08:40:42;99541.19;;;32.51;57.44
11672;BME280;5892;43.412;24.612;2023-07-20T08:43:13;99530.34;;;32.50;57.43
11672;BME280;5892;43.412;24.612;2023-07-20T08:45:42;99517.84;;;32.65;57.82
11672;BME280;5892;43.412;24.612;2023-07-20T08:48:13;99514.09;;;32.83;57.86
11672;BME280;5892;43.412;24.612;2023-07-20T08:50:41;99489.78;;;33.15;54.51
11672;BME280;5892;43.412;24.612;2023-07-20T08:53:12;99472.56;;;33.18;54.09
11672;BME280;5892;43.412;24.612;2023-07-20T08:55:40;99491.69;;;33.71;52.38
11672;BME280;5892;43.412;24.612;2023-07-20T08:58:11;99480.22;;;33.03;52.19
11672;BME280;5892;43.412;24.612;2023-07-20T09:00:41;99410.47;;;32.07;53.43
11672;BME280;5892;43.412;24.612;2023-07-20T09:03:08;99443.50;;;32.10;53.25
11672;BME280;5892;43.412;24.612;2023-07-20T09:05:36;99418.16;;;31.37;55.86
11672;BME280;5892;43.412;24.612;2023-07-20T09:08:04;99439.41;;;31.60;53.27
11672;BME280;5892;43.412;24.612;2023-07-20T09:10:33;99452.09;;;31.92;52.71
11672;BME280;5892;43.412;24.612;2023-07-20T09:12:59;99464.13;;;32.53;51.76
11672;BME280;5892;43.412;24.612;2023-07-20T09:15:28;99470.28;;;33.08;49.75
11672;BME280;5892;43.412;24.612;2023-07-20T09:17:56;99469.59;;;33.51;47.97
11672;BME280;5892;43.412;24.612;2023-07-20T09:20:24;99459.94;;;33.19;48.40
11672;BME280;5892;43.412;24.612;2023-07-20T09:22:52;99469.59;;;33.51;48.32
11672;BME280;5892;43.412;24.612;2023-07-20T09:25:19;99474.41;;;33.45;47.14
11672;BME280;5892;43.412;24.612;2023-07-20T09:27:49;99476.34;;;33.15;46.09
11672;BME280;5892;43.412;24.612;2023-07-20T09:30:16;99463.41;;;33.24;46.91
11672;BME280;5892;43.412;24.612;2023-07-20T09:32:47;99445.47;;;33.17;46.93
11672;BME280;5892;43.412;24.612;2023-07-20T09:35:16;99468.03;;;33.50;47.91
11672;BME280;5892;43.412;24.612;2023-07-20T09:37:47;99476.44;;;33.45;47.02
11672;BME280;5892;43.412;24.612;2023-07-20T09:40:17;99457.25;;;33.40;47.46
11672;BME280;5892;43.412;24.612;2023-07-20T09:42:46;99457.97;;;33.49;47.74
11672;BME280;5892;43.412;24.612;2023-07-20T09:45:15;99445.53;;;33.76;46.47
11672;BME280;5892;43.412;24.612;2023-07-20T09:47:44;99462.78;;;33.58;47.36
11672;BME280;5892;43.412;24.612;2023-07-20T09:50:11;99460.75;;;33.88;46.02
11672;BME280;5892;43.412;24.612;2023-07-20T09:52:41;99459.19;;;34.01;45.23
11672;BME280;5892;43.412;24.612;2023-07-20T09:55:10;99467.09;;;33.97;44.62
11672;BME280;5892;43.412;24.612;2023-07-20T09:57:38;99437.44;;;33.69;44.86
11672;BME280;5892;43.412;24.612;2023-07-20T10:00:07;99448.00;;;33.98;44.46
11672;BME280;5892;43.412;24.612;2023-07-20T10:02:44;99472.31;;;33.84;44.18
11672;BME280;5892;43.412;24.612;2023-07-20T10:05:12;99454.84;;;33.62;44.08
11672;BME280;5892;43.412;24.612;2023-07-20T10:07:44;99459.00;;;33.90;44.28
11672;BME280;5892;43.412;24.612;2023-07-20T10:10:14;99456.13;;;34.20;42.70
11672;BME280;5892;43.412;24.612;2023-07-20T10:12:45;99457.50;;;34.10;40.25
11672;BME280;5892;43.412;24.612;2023-07-20T10:15:18;99442.91;;;34.02;40.37
11672;BME280;5892;43.412;24.612;2023-07-20T10:17:57;99422.31;;;33.92;39.42
11672;BME280;5892;43.412;24.612;2023-07-20T10:20:27;99418.31;;;33.84;39.31
11672;BME280;5892;43.412;24.612;2023-07-20T10:22:56;99404.59;;;33.53;38.41
11672;BME280;5892;43.412;24.612;2023-07-20T10:25:24;99419.16;;;33.46;39.82
11672;BME280;5892;43.412;24.612;2023-07-20T10:27:51;99433.69;;;33.48;42.06
11672;BME280;5892;43.412;24.612;2023-07-20T10:30:18;99406.75;;;33.73;40.77
11672;BME280;5892;43.412;24.612;2023-07-20T10:32:47;99401.44;;;33.37;40.62
11672;BME280;5892;43.412;24.612;2023-07-20T10:35:16;99410.75;;;33.81;40.63
11672;BME280;5892;43.412;24.612;2023-07-20T10:37:48;99394.00;;;33.83;39.86
11672;BME280;5892;43.412;24.612;2023-07-20T10:40:29;99363.63;;;33.89;39.11
11672;BME280;5892;43.412;24.612;2023-07-20T10:42:58;99393.00;;;34.01;38.51
11672;BME280;5892;43.412;24.612;2023-07-20T10:45:36;99381.81;;;34.12;38.92
11672;BME280;5892;43.412;24.612;2023-07-20T10:48:04;99396.72;;;34.22;39.63
11672;BME280;5892;43.412;24.612;2023-07-20T10:50:33;99381.91;;;34.18;39.78
11672;BME280;5892;43.412;24.612;2023-07-20T10:53:13;99385.06;;;34.40;40.05
11672;BME280;5892;43.412;24.612;2023-07-20T10:55:41;99374.56;;;34.46;40.54
11672;BME280;5892;43.412;24.612;2023-07-20T10:58:12;99389.16;;;34.54;40.17
11672;BME280;5892;43.412;24.612;2023-07-20T11:01:00;99365.69;;;34.59;40.17
11672;BME280;5892;43.412;24.612;2023-07-20T11:03:32;99366.03;;;34.11;40.78
11672;BME280;5892;43.412;24.612;2023-07-20T11:06:30;99364.59;;;34.01;41.29
11672;BME280;5892;43.412;24.612;2023-07-20T11:09:04;99359.16;;;33.68;41.89
11672;BME280;5892;43.412;24.612;2023-07-20T11:11:34;99351.09;;;33.81;41.45
11672;BME280;5892;43.412;24.612;2023-07-20T11:14:02;99361.59;;;33.75;41.14
11672;BME280;5892;43.412;24.612;2023-07-20T11:16:37;99368.03;;;33.61;42.17
11672;BME280;5892;43.412;24.612;2023-07-20T11:19:05;99374.03;;;33.48;42.52
11672;BME280;5892;43.412;24.612;2023-07-20T11:21:37;99340.06;;;33.39;41.35
11672;BME280;5892;43.412;24.612;2023-07-20T11:24:05;99350.13;;;33.55;40.98
11672;BME280;5892;43.412;24.612;2023-07-20T11:26:43;99343.84;;;33.36;41.39
11672;BME280;5892;43.412;24.612;2023-07-20T11:29:12;99357.16;;;33.45;41.11
11672;BME280;5892;43.412;24.612;2023-07-20T11:31:42;99333.66;;;33.59;41.58
11672;BME280;5892;43.412;24.612;2023-07-20T11:34:12;99354.72;;;33.82;40.79
11672;BME280;5892;43.412;24.612;2023-07-20T11:36:42;99357.13;;;34.03;40.51
11672;BME280;5892;43.412;24.612;2023-07-20T11:39:10;99356.50;;;33.79;40.87
11672;BME280;5892;43.412;24.612;2023-07-20T11:41:37;99319.56;;;33.79;41.17
11672;BME280;5892;43.412;24.612;2023-07-20T11:44:05;99342.84;;;34.18;39.78
11672;BME280;5892;43.412;24.612;2023-07-20T11:46:39;99338.28;;;34.41;39.71
11672;BME280;5892;43.412;24.612;2023-07-20T11:49:07;99311.13;;;34.20;39.02
11672;BME280;5892;43.412;24.612;2023-07-20T11:51:36;99326.56;;;34.54;38.70
11672;BME280;5892;43.412;24.612;2023-07-20T11:54:08;99326.66;;;34.59;38.64
11672;BME280;5892;43.412;24.612;2023-07-20T11:56:36;99311.75;;;34.29;38.52
11672;BME280;5892;43.412;24.612;2023-07-20T11:59:19;99321.56;;;34.28;38.26
11672;BME280;5892;43.412;24.612;2023-07-20T12:01:46;99322.16;;;34.32;38.61
11672;BME280;5892;43.412;24.612;2023-07-20T12:04:13;99311.78;;;34.15;38.19
11672;BME280;5892;43.412;24.612;2023-07-20T12:06:40;99305.28;;;34.29;38.43
11672;BME280;5892;43.412;24.612;2023-07-20T12:09:14;99304.72;;;34.25;37.54
11672;BME280;5892;43.412;24.612;2023-07-20T12:11:43;99296.16;;;34.04;38.46
11672;BME280;5892;43.412;24.612;2023-07-20T12:14:11;99293.53;;;34.01;36.89
11672;BME280;5892;43.412;24.612;2023-07-20T12:16:37;99282.50;;;34.09;34.99
11672;BME280;5892;43.412;24.612;2023-07-20T12:19:06;99287.06;;;34.00;34.70
11672;BME280;5892;43.412;24.612;2023-07-20T12:21:35;99289.97;;;33.56;36.16
11672;BME280;5892;43.412;24.612;2023-07-20T12:24:04;99279.78;;;33.50;36.90
11672;BME280;5892;43.412;24.612;2023-07-20T12:26:35;99274.88;;;33.65;35.24
11672;BME280;5892;43.412;24.612;2023-07-20T12:29:03;99270.41;;;33.44;37.05
11672;BME280;5892;43.412;24.612;2023-07-20T12:31:34;99253.56;;;33.40;37.42
11672;BME280;5892;43.412;24.612;2023-07-20T12:34:03;99277.03;;;33.55;37.85
11672;BME280;5892;43.412;24.612;2023-07-20T12:36:30;99276.63;;;33.77;37.00
11672;BME280;5892;43.412;24.612;2023-07-20T12:38:57;99276.28;;;33.55;36.98
11672;BME280;5892;43.412;24.612;2023-07-20T12:41:26;99266.38;;;33.65;37.05
11672;BME280;5892;43.412;24.612;2023-07-20T12:43:55;99263.38;;;33.89;36.94
11672;BME280;5892;43.412;24.612;2023-07-20T12:46:23;99254.06;;;34.09;37.72
11672;BME280;5892;43.412;24.612;2023-07-20T12:48:51;99252.53;;;33.73;37.20
11672;BME280;5892;43.412;24.612;2023-07-20T12:51:19;99254.47;;;33.81;37.60
11672;BME280;5892;43.412;24.612;2023-07-20T12:53:45;99250.56;;;33.79;38.04
11672;BME280;5892;43.412;24.612;2023-07-20T12:56:14;99253.78;;;33.86;37.77
11672;BME280;5892;43.412;24.612;2023-07-20T12:58:41;99206.31;;;33.72;37.26
11672;BME280;5892;43.412;24.612;2023-07-20T13:01:09;99242.91;;;33.85;37.84
11672;BME280;5892;43.412;24.612;2023-07-20T13:03:36;99232.38;;;33.56;38.65
11672;BME280;5892;43.412;24.612;2023-07-20T13:06:05;99233.72;;;33.60;38.04
11672;BME280;5892;43.412;24.612;2023-07-20T13:08:32;99225.03;;;33.64;38.10
11672;BME280;5892;43.412;24.612;2023-07-20T13:11:12;99223.50;;;33.83;37.73